Terminal Aerodrome Forecast
Issued by NWS

Home | Current Version | Previous Version | Text Only | Print | Product List | Glossary On
Versions: 1 2 3 4 5 6 7 8 9 10 11 12 13 14 15 16 17 18 19 20 21 22 23
000
FTUS42 KJAX 271725
TAFVQQ
TAF
KVQQ 271725Z 2718/2818 VRB03KT P6SM BKN014
     FM271900 35004KT P6SM VCSH FEW009 BKN025 OVC080
     FM272000 03005KT P6SM VCTS SCT020 BKN030CB
      TEMPO 2720/2724 VRB15G25KT 3SM +TSRA BKN020CB
     FM280100 09006KT P6SM VCSH BKN050 BKN250
     FM280600 03002KT P6SM OVC250
     FM280900 00000KT P6SM SCT018 OVC025
     FM281500 07010KT P6SM VCSH SCT015 BKN030=

USA.gov is the U.S. government's official web portal to all federal, state and local government web resources and services.